Time;durP1;ratioP1;P1;durP2;ratioP2;P2;SDS_P1;SDS_P2;PMS_P1;PMS_P2;Temp;Humidity;BMP_temperature;BMP_pressure;BME280_temperature;BME280_humidity;BME280_pressure;Samples;Min_cycle;Max_cycle;Signal;HPM_P1;HPM_P2
2021/09/30 00:00:41;;;;;;;1.50;0.88;;;10.90;83.30;;;;;;5043815;28;20021;-71
2021/09/30 00:03:08;;;;;;;;;;;10.90;83.00;;;;;;5026789;28;20150;-72
2021/09/30 00:05:34;;;;;;;2.88;0.68;;;11.00;83.40;;;;;;5026247;28;20188;-71
2021/09/30 00:08:00;;;;;;;2.83;0.67;;;11.00;82.90;;;;;;5026429;28;20029;-72
2021/09/30 00:10:26;;;;;;;1.47;0.60;;;10.80;83.70;;;;;;5043767;28;20052;-72
2021/09/30 00:13:00;;;;;;;1.60;0.80;;;10.90;83.50;;;;;;5024275;28;20033;-72
2021/09/30 00:50:23;;;;;;;3.60;0.80;;;11.10;80.80;;;;;;4989559;28;20094;-72
2021/09/30 01:20:06;;;;;;;1.52;0.88;;;10.70;81.80;;;;;;4994363;28;20093;-71
2021/09/30 02:58:32;;;;;;;2.30;1.38;;;9.70;85.50;;;;;;5007218;28;20028;-75
2021/09/30 03:00:49;;;;;;;11.52;2.25;;;9.60;85.90;;;;;;5004935;28;20038;-75
2021/09/30 03:03:15;;;;;;;1.50;1.13;;;9.60;86.00;;;;;;5004599;28;20351;-75
2021/09/30 03:05:41;;;;;;;2.65;1.70;;;9.60;86.10;;;;;;4988328;28;20197;-75
2021/09/30 03:08:07;;;;;;;6.47;1.50;;;9.40;86.70;;;;;;5020556;28;20216;-74
2021/09/30 03:10:33;;;;;;;1.92;1.38;;;9.50;86.70;;;;;;5021644;28;20025;-75
2021/09/30 03:12:58;;;;;;;1.70;1.10;;;9.50;86.50;;;;;;5020788;28;20068;-75
2021/09/30 03:17:54;;;;;;;4.55;1.33;;;9.50;86.30;;;;;;5003394;28;20093;-75
2021/09/30 03:23:09;;;;;;;1.02;0.90;;;9.50;86.90;;;;;;5024396;28;20025;-75
2021/09/30 03:25:35;;;;;;;7.40;1.35;;;9.40;86.80;;;;;;5024260;28;20076;-74
2021/09/30 03:28:02;;;;;;;4.95;1.58;;;9.40;86.70;;;;;;5007967;28;20034;-75
2021/09/30 03:30:28;;;;;;;5.90;1.45;;;9.30;87.10;;;;;;5024105;28;20025;-75
2021/09/30 03:32:54;;;;;;;1.52;1.30;;;9.40;87.50;;;;;;5024245;28;20251;-75
2021/09/30 03:35:20;;;;;;;1.48;1.20;;;9.30;87.20;;;;;;5007815;28;20022;-75
2021/09/30 03:37:46;;;;;;;1.42;1.13;;;9.40;87.10;;;;;;5007384;28;20332;-75
2021/09/30 03:40:12;;;;;;;1.60;1.45;;;9.40;86.70;;;;;;5023986;28;20033;-75
2021/09/30 03:42:38;;;;;;;1.65;1.10;;;9.30;87.10;;;;;;5024133;28;20081;-75
2021/09/30 03:45:04;;;;;;;3.72;1.20;;;9.20;87.40;;;;;;5024220;28;20076;-75
2021/09/30 03:47:30;;;;;;;2.85;1.40;;;9.10;87.60;;;;;;5007645;28;20063;-75
2021/09/30 03:49:56;;;;;;;1.10;1.00;;;9.10;88.00;;;;;;5023816;28;20359;-73
2021/09/30 04:00:29;;;;;;;2.35;1.50;;;8.90;89.00;;;;;;5023799;28;20478;-75
2021/09/30 04:02:55;;;;;;;2.67;1.42;;;8.90;89.00;;;;;;5023779;28;20029;-75
2021/09/30 04:05:21;;;;;;;2.15;1.35;;;8.90;89.20;;;;;;5023782;28;20268;-75
2021/09/30 04:07:46;;;;;;;2.83;1.33;;;8.90;89.10;;;;;;5006901;28;20022;-75
2021/09/30 04:10:12;;;;;;;3.65;1.60;;;8.80;88.90;;;;;;5023279;28;20037;-75
2021/09/30 04:12:38;;;;;;;3.80;1.83;;;8.90;89.40;;;;;;5024613;28;20094;-75
2021/09/30 04:15:05;;;;;;;2.40;1.48;;;8.90;89.20;;;;;;5007052;28;20328;-75
2021/09/30 04:17:30;;;;;;;;;;;9.00;88.90;;;;;;5022780;28;20330;-75
2021/09/30 04:19:56;;;;;;;3.13;1.60;;;8.90;89.10;;;;;;5024335;28;19912;-74
2021/09/30 04:22:22;;;;;;;6.15;1.60;;;9.00;88.70;;;;;;5006961;28;20236;-75
2021/09/30 04:24:48;;;;;;;3.80;1.50;;;9.00;88.70;;;;;;5022917;28;20224;-75
2021/09/30 04:27:15;;;;;;;5.15;1.70;;;9.00;88.30;;;;;;5023280;28;20029;-75
2021/09/30 04:29:40;;;;;;;4.47;1.60;;;9.00;88.40;;;;;;5006801;28;20025;-75
2021/09/30 04:32:07;;;;;;;2.05;1.42;;;9.00;88.30;;;;;;5022547;28;20068;-74
2021/09/30 04:34:32;;;;;;;4.13;1.52;;;8.90;88.40;;;;;;5023140;28;20025;-76
2021/09/30 04:36:58;;;;;;;4.78;1.67;;;8.80;88.60;;;;;;5006454;28;20209;-75
2021/09/30 04:39:24;;;;;;;3.67;2.20;;;8.80;88.70;;;;;;5006356;28;20038;-75
2021/09/30 04:41:50;;;;;;;2.42;1.45;;;8.80;88.90;;;;;;5022488;28;20300;-75
2021/09/30 04:44:16;;;;;;;2.00;1.30;;;8.70;89.10;;;;;;5022917;28;20324;-75
2021/09/30 04:46:42;;;;;;;4.65;1.58;;;8.50;89.70;;;;;;5006007;28;20049;-75
2021/09/30 04:49:07;;;;;;;1.65;1.25;;;8.50;89.90;;;;;;5022780;28;20082;-74
2021/09/30 04:51:34;;;;;;;4.30;1.55;;;8.50;90.00;;;;;;5022500;28;20379;-75
2021/09/30 04:54:00;;;;;;;3.83;1.40;;;8.60;90.00;;;;;;5022435;28;20038;-75
2021/09/30 04:56:27;;;;;;;2.65;1.50;;;8.50;90.00;;;;;;5023253;28;20329;-76
2021/09/30 04:58:53;;;;;;;5.72;1.83;;;8.50;90.00;;;;;;5022569;28;20157;-77
2021/09/30 05:01:19;;;;;;;6.18;1.77;;;8.50;90.10;;;;;;5006059;28;20082;-75
2021/09/30 05:03:45;;;;;;;5.95;1.55;;;8.40;90.10;;;;;;5022513;28;20034;-75
2021/09/30 05:06:10;;;;;;;4.35;1.63;;;8.40;90.40;;;;;;5023563;28;20089;-75
2021/09/30 05:08:36;;;;;;;2.35;1.60;;;8.40;90.00;;;;;;5005712;28;20285;-74
2021/09/30 05:11:03;;;;;;;4.82;1.67;;;8.50;89.90;;;;;;5023240;28;20028;-76
2021/09/30 05:13:42;;;;;;;5.32;1.90;;;8.50;89.40;;;;;;5006009;28;20026;-75
2021/09/30 05:16:10;;;;;;;5.15;1.95;;;8.50;89.40;;;;;;5005717;28;20057;-76
2021/09/30 05:18:36;;;;;;;3.05;1.73;;;8.40;89.20;;;;;;5021089;28;20010;-76
2021/09/30 05:21:03;;;;;;;4.20;2.00;;;8.40;89.70;;;;;;5021794;28;20025;-75
2021/09/30 05:23:29;;;;;;;3.78;1.90;;;8.40;89.80;;;;;;5021901;28;20036;-75
2021/09/30 05:25:55;;;;;;;2.92;2.15;;;8.40;89.90;;;;;;5022109;28;20033;-74
2021/09/30 05:28:20;;;;;;;6.10;1.98;;;8.40;90.00;;;;;;5021964;28;20022;-76
2021/09/30 05:30:47;;;;;;;6.25;2.15;;;8.40;90.20;;;;;;5021815;28;20021;-76
2021/09/30 05:33:13;;;;;;;4.90;1.63;;;8.40;90.20;;;;;;5021916;28;20025;-75
2021/09/30 05:35:38;;;;;;;4.30;1.92;;;8.50;90.00;;;;;;5021968;28;20026;-75
2021/09/30 05:38:04;;;;;;;2.08;1.70;;;8.50;90.00;;;;;;5021370;28;20259;-75
2021/09/30 05:40:31;;;;;;;6.57;2.03;;;8.40;90.00;;;;;;5021630;28;20025;-75
2021/09/30 05:42:58;;;;;;;3.63;2.00;;;8.40;90.00;;;;;;5021581;28;20239;-75
2021/09/30 05:45:24;;;;;;;7.07;2.25;;;8.50;89.90;;;;;;5021851;28;20084;-75
2021/09/30 05:47:50;;;;;;;3.72;1.98;;;8.30;90.10;;;;;;5022885;28;20018;-75
2021/09/30 05:50:16;;;;;;;8.98;2.75;;;8.40;90.00;;;;;;5021356;28;20080;-74
2021/09/30 05:52:42;;;;;;;7.82;1.80;;;8.40;90.10;;;;;;5021446;28;20096;-74
2021/09/30 05:55:08;;;;;;;7.65;2.83;;;8.40;90.10;;;;;;5005276;28;20049;-74
2021/09/30 05:57:34;;;;;;;5.78;3.25;;;8.20;90.70;;;;;;5021429;28;20028;-75
2021/09/30 06:00:16;;;;;;;3.67;2.10;;;8.00;91.10;;;;;;5021321;28;20061;-75
2021/09/30 06:11:01;;;;;;;4.78;2.92;;;8.20;91.20;;;;;;5021287;28;20116;-75
2021/09/30 06:13:34;;;;;;;3.78;2.50;;;8.20;91.20;;;;;;5022577;28;20048;-75
2021/09/30 06:16:06;;;;;;;9.00;2.92;;;8.30;91.10;;;;;;5006003;28;20068;-68
2021/09/30 06:18:31;;;;;;;6.93;3.33;;;8.30;91.10;;;;;;5021865;28;20085;-76
2021/09/30 06:20:57;;;;;;;5.88;3.05;;;8.50;91.40;;;;;;5020940;28;20022;-76
2021/09/30 06:23:23;;;;;;;6.35;3.10;;;8.40;91.00;;;;;;5004566;28;20096;-76
2021/09/30 06:25:49;;;;;;;6.82;3.22;;;8.40;91.00;;;;;;5020846;28;20029;-69
2021/09/30 06:28:15;;;;;;;4.40;2.55;;;8.50;91.80;;;;;;5020764;28;20236;-75
2021/09/30 06:30:40;;;;;;;3.70;2.10;;;8.50;90.90;;;;;;4988025;28;20037;-75
2021/09/30 06:33:06;;;;;;;4.30;2.80;;;8.40;90.80;;;;;;4988572;28;20022;-75
2021/09/30 06:35:32;;;;;;;9.55;4.18;;;8.60;90.90;;;;;;4988482;28;20072;-76
2021/09/30 06:37:58;;;;;;;4.43;2.88;;;8.50;91.00;;;;;;4955904;28;20320;-76
2021/09/30 06:40:24;;;;;;;4.53;2.55;;;8.60;91.00;;;;;;5004305;28;20049;-76
2021/09/30 06:42:49;;;;;;;5.47;2.65;;;8.80;90.90;;;;;;5004629;28;20044;-76
2021/09/30 06:45:15;;;;;;;6.70;3.10;;;8.80;90.40;;;;;;5004704;28;20017;-76
2021/09/30 06:47:41;;;;;;;7.28;2.72;;;8.90;90.60;;;;;;5004467;28;20025;-76
2021/09/30 06:50:09;;;;;;;4.50;2.50;;;8.90;90.40;;;;;;5020649;28;20037;-76
2021/09/30 06:52:35;;;;;;;6.07;2.92;;;8.90;90.40;;;;;;5020549;28;20026;-76
2021/09/30 06:55:01;;;;;;;4.07;2.10;;;9.00;90.30;;;;;;5024249;28;20022;-75
2021/09/30 06:57:29;;;;;;;7.05;2.75;;;9.10;90.60;;;;;;5024387;28;20248;-76
2021/09/30 06:59:58;;;;;;;6.13;2.75;;;9.20;90.50;;;;;;5024838;28;20025;-77
2021/09/30 07:02:24;;;;;;;7.93;2.78;;;9.30;90.40;;;;;;4992161;28;20094;-76
2021/09/30 07:04:50;;;;;;;5.45;2.95;;;9.30;90.00;;;;;;5024949;28;20208;-77
2021/09/30 07:07:16;;;;;;;6.50;3.45;;;9.30;89.10;;;;;;5025699;28;20355;-76
2021/09/30 07:09:42;;;;;;;6.07;3.40;;;9.30;88.60;;;;;;5007993;28;20026;-77
2021/09/30 07:12:08;;;;;;;3.80;2.88;;;9.30;89.20;;;;;;5024608;28;20276;-79
2021/09/30 07:14:34;;;;;;;3.17;2.20;;;9.40;89.40;;;;;;5026698;28;20022;-78
2021/09/30 07:17:00;;;;;;;4.10;2.38;;;9.40;88.60;;;;;;5009993;28;20030;-78
2021/09/30 07:19:26;;;;;;;4.28;2.45;;;9.40;88.90;;;;;;5026188;28;20336;-78
2021/09/30 07:21:51;;;;;;;6.82;2.55;;;9.30;88.50;;;;;;5011327;28;20085;-78
2021/09/30 07:24:17;;;;;;;8.60;3.88;;;9.40;88.50;;;;;;5026852;28;20018;-77
2021/09/30 07:26:43;;;;;;;6.38;2.63;;;9.50;88.50;;;;;;5026700;28;20094;-76
2021/09/30 07:29:09;;;;;;;5.47;2.40;;;9.50;88.90;;;;;;5024271;28;20064;-76
2021/09/30 07:31:35;;;;;;;4.53;1.93;;;9.60;89.00;;;;;;5025156;28;20057;-76
2021/09/30 07:34:00;;;;;;;7.80;2.75;;;9.60;88.20;;;;;;5024249;28;20026;-76
2021/09/30 07:36:26;;;;;;;7.80;2.90;;;9.60;87.60;;;;;;5024271;28;20271;-77
2021/09/30 07:38:52;;;;;;;4.28;2.40;;;9.70;87.70;;;;;;5007252;28;20033;-76
2021/09/30 07:41:18;;;;;;;3.75;2.30;;;9.70;87.90;;;;;;5007515;28;20018;-76
2021/09/30 07:43:44;;;;;;;3.75;2.35;;;9.80;87.50;;;;;;5024194;28;20026;-76
2021/09/30 07:46:10;;;;;;;3.65;2.28;;;9.90;88.10;;;;;;5023886;28;20080;-77
2021/09/30 07:48:36;;;;;;;4.10;2.08;;;10.00;86.10;;;;;;5023958;28;20040;-78
2021/09/30 07:51:01;;;;;;;6.28;2.67;;;10.00;86.80;;;;;;5023681;28;20324;-78
2021/09/30 07:53:27;;;;;;;3.15;2.13;;;10.00;86.90;;;;;;5023739;28;20030;-78
2021/09/30 07:55:53;;;;;;;3.63;1.90;;;10.10;87.20;;;;;;5023802;28;20069;-78
2021/09/30 07:58:19;;;;;;;2.95;1.92;;;10.20;86.50;;;;;;5006806;28;20026;-78
2021/09/30 08:00:45;;;;;;;6.80;1.80;;;10.20;86.70;;;;;;5022844;28;20033;-78
2021/09/30 08:03:11;;;;;;;4.15;2.00;;;10.30;84.50;;;;;;5077808;22;20258;-74
2021/09/30 08:05:37;;;;;;;3.83;2.10;;;10.30;85.10;;;;;;5079789;28;20272;-72
2021/09/30 08:08:04;;;;;;;2.83;1.53;;;10.40;85.20;;;;;;5067252;28;20095;-72
2021/09/30 08:10:30;;;;;;;2.80;1.95;;;10.50;84.10;;;;;;5050544;28;20024;-72
2021/09/30 08:12:56;;;;;;;2.63;1.87;;;10.60;82.10;;;;;;5050653;28;20066;-72
2021/09/30 08:15:22;;;;;;;2.50;1.73;;;10.60;82.50;;;;;;5050579;28;20324;-71
2021/09/30 08:17:48;;;;;;;4.20;1.60;;;10.60;83.10;;;;;;5084710;28;20050;-75
2021/09/30 08:20:14;;;;;;;5.10;1.50;;;10.70;82.60;;;;;;5032514;28;20066;-75
2021/09/30 08:22:41;;;;;;;7.25;1.83;;;10.80;83.30;;;;;;5064898;28;20017;-75
2021/09/30 08:25:07;;;;;;;1.38;1.20;;;10.90;82.10;;;;;;5064574;28;20087;-74
2021/09/30 08:27:33;;;;;;;4.05;1.45;;;11.00;81.00;;;;;;5064483;28;20021;-74
2021/09/30 08:29:59;;;;;;;2.45;1.75;;;11.00;81.90;;;;;;5030294;28;20223;-74
2021/09/30 08:32:25;;;;;;;3.05;1.67;;;11.10;80.40;;;;;;5030066;28;20056;-75
2021/09/30 08:34:50;;;;;;;1.73;1.25;;;11.10;81.30;;;;;;5046689;28;20084;-74
2021/09/30 08:37:17;;;;;;;4.60;1.52;;;11.20;81.90;;;;;;5046803;28;20028;-75
2021/09/30 08:39:42;;;;;;;3.80;1.30;;;11.30;83.30;;;;;;5030265;28;20017;-75
2021/09/30 08:42:08;;;;;;;4.32;1.67;;;11.40;78.90;;;;;;5046396;28;20339;-75
2021/09/30 08:44:34;;;;;;;2.47;1.30;;;11.50;78.40;;;;;;5046760;28;20020;-75
2021/09/30 08:47:04;;;;;;;2.88;2.13;;;11.50;79.20;;;;;;5046346;28;20021;-75
2021/09/30 08:49:30;;;;;;;3.63;1.80;;;11.50;78.20;;;;;;5064157;28;20087;-73
2021/09/30 08:51:56;;;;;;;4.22;2.00;;;11.60;80.00;;;;;;5013289;28;20247;-75
2021/09/30 08:54:22;;;;;;;4.00;1.55;;;11.60;78.70;;;;;;5064141;28;20029;-74
2021/09/30 08:56:48;;;;;;;2.77;1.30;;;11.80;78.70;;;;;;5046187;28;20033;-74
2021/09/30 08:59:22;;;;;;;6.67;1.30;;;11.80;79.10;;;;;;5013690;28;20127;-74
2021/09/30 09:02:14;;;;;;;1.83;1.08;;;11.90;75.90;;;;;;5045640;28;20095;-74
2021/09/30 09:04:59;;;;;;;3.15;1.10;;;11.80;75.20;;;;;;5031532;28;20017;-74
2021/09/30 09:07:30;;;;;;;2.15;0.95;;;11.80;73.60;;;;;;5029541;28;20066;-77
2021/09/30 09:09:57;;;;;;;2.88;1.55;;;11.90;74.60;;;;;;5030069;28;20323;-75
2021/09/30 09:12:23;;;;;;;2.58;1.02;;;12.20;71.80;;;;;;5045954;28;20092;-74
2021/09/30 09:14:49;;;;;;;2.27;0.90;;;12.30;73.10;;;;;;5029730;28;20017;-74
2021/09/30 09:17:17;;;;;;;2.58;1.00;;;12.40;72.80;;;;;;5028525;28;20296;-75
2021/09/30 09:19:52;;;;;;;1.55;0.90;;;12.50;74.00;;;;;;5017002;28;20459;-74
2021/09/30 09:22:30;;;;;;;1.83;0.77;;;12.60;73.00;;;;;;5009665;28;20031;-74
2021/09/30 09:25:15;;;;;;;1.50;1.40;;;12.70;69.80;;;;;;5026758;28;20225;-74
2021/09/30 09:27:53;;;;;;;3.22;1.08;;;12.80;66.90;;;;;;5025995;28;20017;-75
2021/09/30 09:30:52;;;;;;;2.15;0.90;;;12.90;70.50;;;;;;5010080;28;20017;-74
2021/09/30 09:33:28;;;;;;;1.75;0.77;;;13.70;65.60;;;;;;5043200;28;20017;-74
2021/09/30 09:38:42;;;;;;;4.35;1.15;;;13.10;65.90;;;;;;5010926;28;20037;-74
2021/09/30 09:41:08;;;;;;;3.88;0.98;;;13.10;67.30;;;;;;5043027;28;20021;-74
2021/09/30 09:43:41;;;;;;;1.67;0.80;;;13.10;66.70;;;;;;5043448;28;20021;-74
2021/09/30 09:46:08;;;;;;;1.58;1.08;;;13.10;64.90;;;;;;5026011;28;20032;-74
2021/09/30 09:48:34;;;;;;;5.15;1.92;;;13.10;66.30;;;;;;5027212;28;20024;-74
2021/09/30 09:51:03;;;;;;;2.22;1.42;;;13.10;65.80;;;;;;5045284;28;20033;-74
2021/09/30 09:53:31;;;;;;;3.17;0.90;;;13.30;66.40;;;;;;5045302;28;20086;-73
2021/09/30 09:56:12;;;;;;;1.40;0.70;;;13.20;63.80;;;;;;5045313;28;20201;-74
2021/09/30 09:58:47;;;;;;;4.15;1.02;;;13.00;63.10;;;;;;5062976;28;20024;-73
2021/09/30 10:01:13;;;;;;;2.17;1.02;;;12.90;63.50;;;;;;5062605;28;20115;-74
2021/09/30 10:03:53;;;;;;;1.30;0.83;;;13.00;64.70;;;;;;5028868;28;20021;-74
2021/09/30 10:06:19;;;;;;;2.50;0.95;;;13.20;62.50;;;;;;5046911;28;20025;-74
2021/09/30 10:08:45;;;;;;;2.90;1.08;;;13.40;61.50;;;;;;5063227;28;20024;-74
2021/09/30 10:11:11;;;;;;;2.47;1.05;;;13.80;61.90;;;;;;5028597;28;20146;-74
2021/09/30 10:13:38;;;;;;;1.02;0.50;;;;;;;;;;5012308;28;20025;-74
2021/09/30 10:16:04;;;;;;;3.13;0.82;;;14.50;57.20;;;;;;5045162;28;20048;-74
2021/09/30 10:18:30;;;;;;;3.60;1.00;;;14.80;57.20;;;;;;5042974;28;20088;-74
2021/09/30 10:20:57;;;;;;;0.80;0.80;;;15.00;56.30;;;;;;5042627;28;20036;-74
2021/09/30 10:23:36;;;;;;;2.88;0.80;;;15.30;56.70;;;;;;5011632;28;20212;-77
2021/09/30 10:26:55;;;;;;;1.90;0.90;;;15.30;54.00;;;;;;5046388;28;20036;-74
2021/09/30 10:29:45;;;;;;;4.80;1.08;;;15.40;54.30;;;;;;5030702;28;20024;-77
2021/09/30 10:32:12;;;;;;;1.70;0.82;;;15.70;54.60;;;;;;5044663;28;20082;-74
2021/09/30 10:34:41;;;;;;;1.83;0.73;;;16.00;52.10;;;;;;5028020;28;20032;-74
2021/09/30 10:37:25;;;;;;;0.90;0.65;;;16.00;51.70;;;;;;5044946;28;20048;-74
2021/09/30 10:40:14;;;;;;;2.35;0.80;;;16.00;49.90;;;;;;5062372;28;20358;-74
2021/09/30 10:42:45;;;;;;;2.08;0.80;;;15.60;52.00;;;;;;5062140;28;20052;-74
2021/09/30 10:45:15;;;;;;;1.85;0.60;;;15.30;51.60;;;;;;5062477;28;20025;-74
2021/09/30 10:47:42;;;;;;;2.00;0.65;;;15.60;50.90;;;;;;5044782;28;20189;-74
2021/09/30 10:50:08;;;;;;;1.10;0.68;;;16.00;49.50;;;;;;5044286;28;20053;-77
2021/09/30 10:52:44;;;;;;;2.90;0.70;;;16.30;50.90;;;;;;5044682;28;20318;-77
2021/09/30 10:55:16;;;;;;;5.28;0.80;;;16.00;50.70;;;;;;5029755;28;20333;-74
2021/09/30 10:57:46;;;;;;;3.50;1.13;;;15.60;50.80;;;;;;5062306;28;20327;-74
2021/09/30 11:00:19;;;;;;;1.30;0.80;;;15.30;51.20;;;;;;5062039;28;20040;-75
2021/09/30 11:03:00;;;;;;;2.15;0.60;;;15.20;52.40;;;;;;5045463;28;20092;-74
2021/09/30 11:05:33;;;;;;;2.65;0.60;;;14.60;53.10;;;;;;5062027;28;20021;-74
2021/09/30 11:08:18;;;;;;;3.60;0.85;;;14.40;53.90;;;;;;5062397;28;20337;-74
2021/09/30 11:11:06;;;;;;;1.63;0.90;;;14.60;56.00;;;;;;5061736;28;20029;-74
2021/09/30 11:14:07;;;;;;;4.25;0.88;;;14.60;53.60;;;;;;5062116;28;20017;-74
2021/09/30 11:16:42;;;;;;;5.03;1.08;;;14.50;56.40;;;;;;5038387;28;20037;-74
2021/09/30 11:19:29;;;;;;;2.00;1.00;;;14.50;54.90;;;;;;5037992;28;20255;-74
2021/09/30 11:22:01;;;;;;;3.20;0.90;;;14.20;55.60;;;;;;5040853;28;20088;-75
2021/09/30 11:24:39;;;;;;;1.02;0.70;;;14.20;57.20;;;;;;5042262;28;20085;-74
2021/09/30 11:27:06;;;;;;;;;;;14.20;55.20;;;;;;5041530;28;20021;-76
2021/09/30 11:29:32;;;;;;;0.60;0.60;;;14.30;56.10;;;;;;5042057;28;19905;-74
2021/09/30 11:31:58;;;;;;;4.87;1.10;;;14.40;55.90;;;;;;5041707;28;20029;-74
2021/09/30 11:34:41;;;;;;;2.13;1.00;;;14.30;53.90;;;;;;5041834;28;20158;-74
2021/09/30 11:37:21;;;;;;;1.63;1.10;;;14.40;55.40;;;;;;5024360;28;20144;-75
2021/09/30 11:39:50;;;;;;;1.83;0.82;;;14.60;54.40;;;;;;5008060;28;20232;-73
2021/09/30 11:42:21;;;;;;;2.90;0.73;;;14.60;54.80;;;;;;5043260;28;20021;-74
2021/09/30 11:45:04;;;;;;;1.52;0.63;;;14.70;53.10;;;;;;5045511;28;20014;-77
2021/09/30 11:47:31;;;;;;;1.98;0.70;;;14.70;53.50;;;;;;5044407;28;20197;-74
2021/09/30 11:49:57;;;;;;;1.80;0.70;;;15.30;53.50;;;;;;5043882;28;20025;-75
2021/09/30 11:52:23;;;;;;;5.28;1.38;;;17.30;50.20;;;;;;5027605;28;20033;-77
2021/09/30 11:54:49;;;;;;;1.10;0.83;;;18.60;45.00;;;;;;5044338;28;20026;-74
2021/09/30 11:57:19;;;;;;;3.30;0.60;;;18.20;45.00;;;;;;5043991;28;20086;-74
2021/09/30 11:59:45;;;;;;;1.15;0.70;;;17.60;45.70;;;;;;5027601;28;20029;-76
2021/09/30 12:02:12;;;;;;;2.10;0.60;;;18.20;47.30;;;;;;5027240;28;20098;-78
2021/09/30 12:04:51;;;;;;;0.82;0.70;;;18.40;43.60;;;;;;5044850;28;20017;-74
2021/09/30 12:07:21;;;;;;;3.92;1.00;;;18.30;44.80;;;;;;5028594;28;20239;-77
2021/09/30 12:09:56;;;;;;;1.23;0.98;;;18.50;45.10;;;;;;5045063;28;20026;-77
2021/09/30 12:12:32;;;;;;;2.50;0.75;;;19.50;41.90;;;;;;5043812;28;20128;-75
2021/09/30 12:14:58;;;;;;;4.80;1.08;;;19.60;37.00;;;;;;5027246;28;20335;-75
2021/09/30 12:17:29;;;;;;;9.77;0.90;;;20.20;38.60;;;;;;5044995;28;20029;-75
2021/09/30 12:19:55;;;;;;;0.40;0.40;;;19.80;36.00;;;;;;5042248;28;20025;-74
2021/09/30 12:22:32;;;;;;;1.60;0.65;;;18.80;38.50;;;;;;5027062;28;20017;-74
2021/09/30 12:25:24;;;;;;;1.75;0.50;;;18.90;39.80;;;;;;5012312;28;20283;-75
2021/09/30 12:27:51;;;;;;;3.50;0.80;;;20.70;37.70;;;;;;5044459;28;20022;-75
2021/09/30 12:30:26;;;;;;;4.25;2.00;;;22.60;34.90;;;;;;5026940;28;20021;-75
2021/09/30 12:32:54;;;;;;;5.68;0.90;;;24.20;32.30;;;;;;5044584;28;20017;-76
2021/09/30 12:35:28;;;;;;;2.05;0.70;;;24.60;31.30;;;;;;5010346;28;20022;-75
2021/09/30 12:37:56;;;;;;;5.25;0.98;;;24.30;30.10;;;;;;5026657;28;20036;-69
2021/09/30 12:40:36;;;;;;;2.70;0.80;;;22.20;36.00;;;;;;5044172;28;20036;-72
2021/09/30 12:43:18;;;;;;;2.20;0.75;;;21.10;37.90;;;;;;5044351;28;20028;-71
2021/09/30 12:46:07;;;;;;;2.80;0.70;;;19.90;39.00;;;;;;5044066;28;20028;-71
2021/09/30 12:48:34;;;;;;;1.15;0.65;;;18.90;40.90;;;;;;5057774;28;20079;-69
2021/09/30 12:51:08;;;;;;;3.15;0.90;;;18.10;41.90;;;;;;5059426;28;20028;-71
2021/09/30 12:53:51;;;;;;;1.52;0.80;;;17.90;43.40;;;;;;5063482;28;20032;-67
2021/09/30 12:56:28;;;;;;;2.70;0.70;;;18.30;43.60;;;;;;5063227;28;20056;-69
2021/09/30 12:58:54;;;;;;;1.33;0.73;;;20.20;41.90;;;;;;5063561;28;20086;-70
2021/09/30 13:01:34;;;;;;;2.20;0.52;;;21.70;35.90;;;;;;5062788;28;20433;-70
2021/09/30 13:04:25;;;;;;;2.83;0.80;;;21.90;35.20;;;;;;5063487;28;20228;-71
2021/09/30 13:07:00;;;;;;;1.27;0.80;;;22.90;33.40;;;;;;5063702;28;20033;-69
2021/09/30 13:09:38;;;;;;;3.90;1.05;;;22.80;38.80;;;;;;5063440;28;20021;-70
2021/09/30 13:12:18;;;;;;;2.00;0.77;;;22.80;32.70;;;;;;5063428;28;20032;-70
2021/09/30 13:14:48;;;;;;;1.05;0.70;;;;;;;;;;5063491;28;20044;-70
2021/09/30 13:17:27;;;;;;;2.35;0.80;;;22.50;31.80;;;;;;5044026;28;20048;-70
2021/09/30 13:20:14;;;;;;;1.48;0.90;;;21.30;35.00;;;;;;5052743;28;20017;-69
2021/09/30 13:22:41;;;;;;;1.47;0.90;;;19.70;37.50;;;;;;5043176;28;20228;-69
2021/09/30 13:25:18;;;;;;;1.67;0.75;;;18.70;40.00;;;;;;5043587;28;20021;-70
2021/09/30 13:27:46;;;;;;;3.07;0.80;;;18.40;41.40;;;;;;5043180;28;20017;-78
2021/09/30 13:30:16;;;;;;;2.30;0.75;;;18.90;41.00;;;;;;5025612;28;20017;-76
2021/09/30 13:32:42;;;;;;;0.68;0.68;;;19.40;39.20;;;;;;5009802;28;20021;-76
2021/09/30 13:35:08;;;;;;;0.70;0.70;;;20.20;35.70;;;;;;5009296;28;20025;-75
2021/09/30 13:37:34;;;;;;;;;;;20.20;35.50;;;;;;5009758;28;20021;-78
2021/09/30 13:40:00;;;;;;;0.63;0.63;;;19.20;51.50;;;;;;5025073;28;19904;-80
2021/09/30 13:42:32;;;;;;;0.57;0.55;;;18.80;46.20;;;;;;5043098;28;20047;-76
2021/09/30 13:44:58;;;;;;;4.03;0.82;;;18.10;40.00;;;;;;5026551;28;20390;-72
2021/09/30 13:47:25;;;;;;;0.82;0.60;;;17.50;41.30;;;;;;5042979;28;20017;-72
2021/09/30 13:49:51;;;;;;;2.75;1.00;;;17.10;42.80;;;;;;5036355;28;20021;-73
2021/09/30 13:52:17;;;;;;;2.72;1.30;;;16.70;44.30;;;;;;5044740;28;20017;-72
2021/09/30 13:54:43;;;;;;;4.38;0.90;;;16.70;43.80;;;;;;5062869;28;20025;-72
2021/09/30 13:57:10;;;;;;;2.33;0.77;;;16.50;43.60;;;;;;5045331;28;20048;-74
2021/09/30 13:59:37;;;;;;;0.90;0.75;;;16.30;43.50;;;;;;5028851;28;20017;-72
2021/09/30 14:02:04;;;;;;;2.80;1.10;;;16.10;44.30;;;;;;5086912;23;20048;-75
2021/09/30 14:04:30;;;;;;;2.17;1.00;;;16.10;44.10;;;;;;5096207;28;20043;-73
2021/09/30 14:06:56;;;;;;;3.83;1.93;;;16.00;43.90;;;;;;5102593;28;20024;-72
2021/09/30 14:09:25;;;;;;;2.42;1.05;;;16.50;44.50;;;;;;5102017;28;20043;-71
2021/09/30 14:11:52;;;;;;;1.80;1.35;;;16.60;45.10;;;;;;5101713;28;20059;-70
2021/09/30 14:14:18;;;;;;;3.85;1.63;;;16.50;44.40;;;;;;5117996;28;20372;-72
2021/09/30 14:16:48;;;;;;;2.78;0.77;;;16.40;46.80;;;;;;5117640;28;20056;-72
2021/09/30 14:19:16;;;;;;;4.10;1.10;;;16.40;48.80;;;;;;5117656;28;20020;-72
2021/09/30 14:21:41;;;;;;;5.93;1.00;;;16.50;48.10;;;;;;5102349;28;20042;-72
2021/09/30 14:24:07;;;;;;;1.00;0.90;;;16.30;46.10;;;;;;5118243;28;20016;-73
2021/09/30 14:26:33;;;;;;;7.90;3.20;;;16.00;47.60;;;;;;5101158;28;20057;-75
2021/09/30 14:28:59;;;;;;;11.40;4.50;;;16.10;48.50;;;;;;5117416;28;20032;-71
2021/09/30 14:31:25;;;;;;;13.80;6.37;;;16.40;47.80;;;;;;5100651;28;20094;-70
2021/09/30 14:33:51;;;;;;;7.90;2.27;;;17.10;44.90;;;;;;5101849;28;20024;-71
2021/09/30 14:36:17;;;;;;;4.88;2.47;;;18.30;44.30;;;;;;5099408;28;20459;-72
2021/09/30 14:38:43;;;;;;;2.87;1.50;;;18.90;40.80;;;;;;5097572;28;20040;-75
2021/09/30 14:41:09;;;;;;;65.07;36.90;;;18.70;42.00;;;;;;5080309;28;20058;-77
2021/09/30 14:43:37;;;;;;;53.40;27.10;;;18.20;42.20;;;;;;5081762;28;20281;-77
2021/09/30 14:46:07;;;;;;;11.30;5.78;;;17.80;42.60;;;;;;5081728;28;20272;-76
2021/09/30 14:48:34;;;;;;;3.33;1.08;;;17.40;43.20;;;;;;5064052;28;20074;-77
2021/09/30 14:51:01;;;;;;;1.45;0.77;;;17.20;43.30;;;;;;5083442;28;20073;-76
2021/09/30 14:53:28;;;;;;;3.88;1.10;;;17.60;42.40;;;;;;5101771;28;20028;-77
2021/09/30 14:55:54;;;;;;;3.47;1.08;;;17.70;42.70;;;;;;5117617;28;20039;-77
2021/09/30 14:58:20;;;;;;;2.43;1.00;;;17.50;41.20;;;;;;5101969;28;20268;-77
2021/09/30 15:00:45;;;;;;;1.27;0.50;;;16.80;43.00;;;;;;5117293;28;20079;-77
2021/09/30 15:03:11;;;;;;;0.97;0.70;;;16.40;43.20;;;;;;5101492;28;20394;-77
2021/09/30 15:05:37;;;;;;;0.70;0.60;;;16.10;43.90;;;;;;5090597;28;20039;-76
2021/09/30 15:08:03;;;;;;;1.07;0.60;;;16.00;43.90;;;;;;5079983;28;20028;-77
2021/09/30 15:10:30;;;;;;;2.70;1.00;;;16.10;45.10;;;;;;5046632;28;20234;-77
2021/09/30 15:12:56;;;;;;;1.65;0.57;;;16.00;45.50;;;;;;5047272;28;20118;-77
2021/09/30 15:15:22;;;;;;;2.90;0.70;;;15.90;44.40;;;;;;5048568;28;20060;-77
2021/09/30 15:23:30;;;;;;;1.80;1.00;;;16.10;45.90;;;;;;5070246;28;20348;-76
2021/09/30 15:25:56;;;;;;;0.67;0.50;;;16.30;45.20;;;;;;5067375;28;20091;-76
2021/09/30 15:28:22;;;;;;;2.73;0.50;;;16.40;46.20;;;;;;5083554;28;20039;-76
2021/09/30 15:30:47;;;;;;;1.50;0.70;;;16.20;44.80;;;;;;5066136;28;20345;-76
2021/09/30 15:33:13;;;;;;;1.17;0.87;;;16.10;44.00;;;;;;5084586;28;20084;-76
2021/09/30 15:35:42;;;;;;;1.43;0.70;;;16.20;43.70;;;;;;5067134;28;20084;-77
2021/09/30 15:38:08;;;;;;;3.35;0.88;;;16.20;45.20;;;;;;5078077;28;20350;-76
2021/09/30 15:40:34;;;;;;;6.20;0.90;;;16.10;46.60;;;;;;5066735;28;20074;-76
2021/09/30 15:43:00;;;;;;;1.13;0.60;;;16.10;45.50;;;;;;5083332;28;20119;-78
2021/09/30 15:45:26;;;;;;;1.67;0.93;;;16.10;48.40;;;;;;5083710;28;20032;-78
2021/09/30 15:47:51;;;;;;;2.43;0.80;;;16.00;48.60;;;;;;5083483;28;20263;-76
2021/09/30 15:50:17;;;;;;;1.20;0.70;;;15.90;47.40;;;;;;5088202;28;20192;-77
2021/09/30 15:52:43;;;;;;;3.00;0.83;;;15.80;49.00;;;;;;5087344;28;20019;-78
2021/09/30 15:55:09;;;;;;;1.57;0.70;;;15.70;49.50;;;;;;5087217;28;20153;-76
2021/09/30 15:57:36;;;;;;;1.87;0.80;;;15.70;47.10;;;;;;5104214;28;20016;-77
2021/09/30 16:00:04;;;;;;;1.10;0.90;;;15.50;49.20;;;;;;5087065;28;20016;-75
2021/09/30 16:02:30;;;;;;;2.85;0.80;;;15.40;49.80;;;;;;5087152;28;20035;-76
2021/09/30 16:04:58;;;;;;;2.57;0.70;;;15.40;55.20;;;;;;5104163;28;20020;-76
2021/09/30 16:07:25;;;;;;;3.88;0.85;;;15.30;61.20;;;;;;5093036;28;20251;-76
2021/09/30 16:09:51;;;;;;;;;;;15.30;53.60;;;;;;5085252;28;20025;-76